Briefing drone pour Chambery (LFLB)

Rechercher une autre localisation

Conditions de vol :


Nous sommes le : Dimanche 09 mai 2021
Il est 02:45 UTC (04:45 LT)

Lever de soleil : 03:46 UTC (05:46 LT)
Coucher de soleil : 19:19 UTC (21:19 LT)

Météo

L'essentiel des conditions de vol

VIGILANCE MÉTÉO FRANCE - Savoie (73)
Pas de vigilances particulieres
CARTE TEMSI
CARTES DES FRONTS
METAR de LFLB
LFLB 090230Z AUTO VRB02KT CAVOK 10/09 Q1013

Date d'émission: 09/05/2021
Heure d'émission: 02:30 UTC
Vent: Variable 2 KT (4 km/h)
Visibilité horizontale: > 10 km
Plafond : Plafond et visibilité OK (CAVOK)
Température: 10 °C
Point de rosée: 9 °C
Humidité: 94%
Pression (QNH): 1013 hPa
TAF de LFLB
LFLB 090200Z 0903/1003 18012KT CAVOK TEMPO 0911/0915 18020G30KT

Conditions prévues :

Heure d'émission : Bulletin éffectué le 09 à 03:00 UTC
Prévision : Valide du 09 a 03:00 UTC au 10 a 03:00 UTC
Vent : 180° pour 12 KT (22 km/h)
Visibilité : > 10 km

Temporairement :

Prévision : Valide du 09 a 11:00 UTC au 09 a 15:00 UTC
Vent : 180° pour 20 KT (37 km/h) rafales pour 30 KT (56 km/h)
WEBCAM POUR CHAMBERY

Réglementation

Voler en sécurité

CARTES AERONAUTIQUE 1/500.000
CARTES VAC (LFLB)
SUP AIP




Chargement des AIP...
NOTAM (CHAMBERY + Terrain à proximité / FIR )




Chargement des NOTAMS...
CONTACT PREFECTURE 73


Avertissement : Les données mises à disposition sont indicatives. Oxygène Drone ne pourra être tenu responsable de dégâts causés aux biens et aux personnes.